sensor_id;sensor_type;location;lat;lon;timestamp;P1;durP1;ratioP1;P2;durP2;ratioP2
15297;SDS011;7750;48.796;9.026;2024-01-07T00:03:30;21.57;;;15.70;;
15297;SDS011;7750;48.796;9.026;2024-01-07T00:08:31;17.67;;;14.27;;
15297;SDS011;7750;48.796;9.026;2024-01-07T00:13:31;16.90;;;14.40;;
15297;SDS011;7750;48.796;9.026;2024-01-07T00:18:32;18.37;;;14.10;;
15297;SDS011;7750;48.796;9.026;2024-01-07T00:23:33;16.83;;;13.10;;
15297;SDS011;7750;48.796;9.026;2024-01-07T00:28:33;19.30;;;15.07;;
15297;SDS011;7750;48.796;9.026;2024-01-07T00:33:34;19.03;;;15.17;;
15297;SDS011;7750;48.796;9.026;2024-01-07T00:38:37;26.40;;;17.83;;
15297;SDS011;7750;48.796;9.026;2024-01-07T00:43:38;48.93;;;15.97;;
15297;SDS011;7750;48.796;9.026;2024-01-07T00:48:38;22.77;;;15.80;;
15297;SDS011;7750;48.796;9.026;2024-01-07T00:53:39;27.97;;;16.00;;
15297;SDS011;7750;48.796;9.026;2024-01-07T00:58:40;36.07;;;18.17;;
15297;SDS011;7750;48.796;9.026;2024-01-07T01:03:40;31.87;;;17.13;;
15297;SDS011;7750;48.796;9.026;2024-01-07T01:08:41;94.07;;;17.27;;
15297;SDS011;7750;48.796;9.026;2024-01-07T01:13:41;30.23;;;15.87;;
15297;SDS011;7750;48.796;9.026;2024-01-07T01:23:53;43.40;;;15.87;;
15297;SDS011;7750;48.796;9.026;2024-01-07T01:28:54;48.67;;;15.57;;
15297;SDS011;7750;48.796;9.026;2024-01-07T01:33:55;94.70;;;19.27;;
15297;SDS011;7750;48.796;9.026;2024-01-07T01:38:55;97.10;;;17.23;;
15297;SDS011;7750;48.796;9.026;2024-01-07T01:43:57;48.30;;;16.40;;
15297;SDS011;7750;48.796;9.026;2024-01-07T01:48:58;46.83;;;15.60;;
15297;SDS011;7750;48.796;9.026;2024-01-07T01:54:00;58.70;;;15.17;;
15297;SDS011;7750;48.796;9.026;2024-01-07T01:59:02;91.43;;;19.80;;
15297;SDS011;7750;48.796;9.026;2024-01-07T02:04:03;37.13;;;15.87;;
15297;SDS011;7750;48.796;9.026;2024-01-07T02:09:05;31.17;;;16.20;;
15297;SDS011;7750;48.796;9.026;2024-01-07T02:14:06;102.30;;;19.07;;
15297;SDS011;7750;48.796;9.026;2024-01-07T02:19:07;26.03;;;15.37;;
15297;SDS011;7750;48.796;9.026;2024-01-07T02:24:08;22.43;;;16.37;;
15297;SDS011;7750;48.796;9.026;2024-01-07T02:29:16;23.37;;;17.83;;
15297;SDS011;7750;48.796;9.026;2024-01-07T02:34:18;20.30;;;16.13;;
15297;SDS011;7750;48.796;9.026;2024-01-07T02:39:19;23.60;;;17.93;;
15297;SDS011;7750;48.796;9.026;2024-01-07T02:44:19;21.20;;;16.57;;
15297;SDS011;7750;48.796;9.026;2024-01-07T02:49:20;24.70;;;18.40;;
15297;SDS011;7750;48.796;9.026;2024-01-07T02:54:20;22.57;;;17.40;;
15297;SDS011;7750;48.796;9.026;2024-01-07T02:59:21;21.43;;;16.87;;
15297;SDS011;7750;48.796;9.026;2024-01-07T03:04:22;21.00;;;17.30;;
15297;SDS011;7750;48.796;9.026;2024-01-07T03:09:22;21.60;;;16.67;;
15297;SDS011;7750;48.796;9.026;2024-01-07T03:14:23;24.77;;;17.60;;
15297;SDS011;7750;48.796;9.026;2024-01-07T03:19:23;25.30;;;17.17;;
15297;SDS011;7750;48.796;9.026;2024-01-07T03:24:24;21.80;;;17.00;;
15297;SDS011;7750;48.796;9.026;2024-01-07T03:29:25;23.43;;;18.30;;
15297;SDS011;7750;48.796;9.026;2024-01-07T03:34:25;27.43;;;17.57;;
15297;SDS011;7750;48.796;9.026;2024-01-07T03:39:27;22.77;;;17.60;;
15297;SDS011;7750;48.796;9.026;2024-01-07T03:44:31;22.37;;;16.30;;
15297;SDS011;7750;48.796;9.026;2024-01-07T03:49:32;20.03;;;15.20;;
15297;SDS011;7750;48.796;9.026;2024-01-07T03:54:33;22.10;;;16.87;;
15297;SDS011;7750;48.796;9.026;2024-01-07T03:59:33;22.80;;;17.60;;
15297;SDS011;7750;48.796;9.026;2024-01-07T04:04:34;21.80;;;16.17;;
15297;SDS011;7750;48.796;9.026;2024-01-07T04:09:35;18.90;;;15.10;;
15297;SDS011;7750;48.796;9.026;2024-01-07T04:14:36;20.63;;;16.00;;
15297;SDS011;7750;48.796;9.026;2024-01-07T04:19:37;19.50;;;14.90;;
15297;SDS011;7750;48.796;9.026;2024-01-07T04:24:40;21.90;;;16.30;;
15297;SDS011;7750;48.796;9.026;2024-01-07T04:29:41;18.57;;;14.10;;
15297;SDS011;7750;48.796;9.026;2024-01-07T04:34:42;18.07;;;13.83;;
15297;SDS011;7750;48.796;9.026;2024-01-07T04:39:42;19.70;;;14.80;;
15297;SDS011;7750;48.796;9.026;2024-01-07T04:44:43;17.90;;;13.57;;
15297;SDS011;7750;48.796;9.026;2024-01-07T04:49:44;18.67;;;14.07;;
15297;SDS011;7750;48.796;9.026;2024-01-07T04:54:45;18.67;;;14.03;;
15297;SDS011;7750;48.796;9.026;2024-01-07T04:59:49;19.57;;;14.40;;
15297;SDS011;7750;48.796;9.026;2024-01-07T05:04:50;18.13;;;14.50;;
15297;SDS011;7750;48.796;9.026;2024-01-07T05:09:50;18.80;;;14.30;;
15297;SDS011;7750;48.796;9.026;2024-01-07T05:14:51;19.20;;;14.30;;
15297;SDS011;7750;48.796;9.026;2024-01-07T05:19:52;20.90;;;14.30;;
15297;SDS011;7750;48.796;9.026;2024-01-07T05:24:53;25.07;;;16.10;;
15297;SDS011;7750;48.796;9.026;2024-01-07T05:29:53;15.60;;;12.67;;
15297;SDS011;7750;48.796;9.026;2024-01-07T05:34:55;17.67;;;12.90;;
15297;SDS011;7750;48.796;9.026;2024-01-07T05:39:56;16.03;;;13.03;;
15297;SDS011;7750;48.796;9.026;2024-01-07T05:44:56;19.07;;;14.13;;
15297;SDS011;7750;48.796;9.026;2024-01-07T05:49:57;18.53;;;13.97;;
15297;SDS011;7750;48.796;9.026;2024-01-07T05:54:58;16.97;;;12.90;;
15297;SDS011;7750;48.796;9.026;2024-01-07T05:59:58;16.27;;;12.20;;
15297;SDS011;7750;48.796;9.026;2024-01-07T06:04:59;18.33;;;13.50;;
15297;SDS011;7750;48.796;9.026;2024-01-07T06:10:00;17.50;;;13.87;;
15297;SDS011;7750;48.796;9.026;2024-01-07T06:15:00;16.97;;;13.17;;
15297;SDS011;7750;48.796;9.026;2024-01-07T06:20:01;18.87;;;13.63;;
15297;SDS011;7750;48.796;9.026;2024-01-07T06:25:02;15.47;;;11.07;;
15297;SDS011;7750;48.796;9.026;2024-01-07T06:30:04;15.40;;;11.60;;
15297;SDS011;7750;48.796;9.026;2024-01-07T06:35:05;16.17;;;12.40;;
15297;SDS011;7750;48.796;9.026;2024-01-07T06:40:06;16.37;;;12.90;;
15297;SDS011;7750;48.796;9.026;2024-01-07T06:45:08;16.80;;;13.27;;
15297;SDS011;7750;48.796;9.026;2024-01-07T06:50:10;14.80;;;11.53;;
15297;SDS011;7750;48.796;9.026;2024-01-07T06:55:11;14.20;;;11.00;;
15297;SDS011;7750;48.796;9.026;2024-01-07T07:00:11;19.50;;;12.27;;
15297;SDS011;7750;48.796;9.026;2024-01-07T07:05:12;16.00;;;12.60;;
15297;SDS011;7750;48.796;9.026;2024-01-07T07:10:13;19.50;;;13.33;;
15297;SDS011;7750;48.796;9.026;2024-01-07T07:15:14;14.43;;;11.47;;
15297;SDS011;7750;48.796;9.026;2024-01-07T07:20:14;14.37;;;11.80;;
15297;SDS011;7750;48.796;9.026;2024-01-07T07:25:15;14.40;;;11.47;;
15297;SDS011;7750;48.796;9.026;2024-01-07T07:30:17;13.80;;;10.63;;
15297;SDS011;7750;48.796;9.026;2024-01-07T07:35:19;16.20;;;12.23;;
15297;SDS011;7750;48.796;9.026;2024-01-07T07:40:20;13.73;;;11.17;;
15297;SDS011;7750;48.796;9.026;2024-01-07T07:45:21;12.80;;;9.63;;
15297;SDS011;7750;48.796;9.026;2024-01-07T07:50:22;12.40;;;10.17;;
15297;SDS011;7750;48.796;9.026;2024-01-07T07:55:22;14.77;;;9.80;;
15297;SDS011;7750;48.796;9.026;2024-01-07T08:00:23;12.83;;;10.03;;
15297;SDS011;7750;48.796;9.026;2024-01-07T08:05:24;12.00;;;9.50;;
15297;SDS011;7750;48.796;9.026;2024-01-07T08:10:25;10.73;;;8.50;;
15297;SDS011;7750;48.796;9.026;2024-01-07T08:15:25;13.60;;;10.23;;
15297;SDS011;7750;48.796;9.026;2024-01-07T08:20:26;11.90;;;9.47;;
15297;SDS011;7750;48.796;9.026;2024-01-07T08:25:27;13.10;;;9.90;;
15297;SDS011;7750;48.796;9.026;2024-01-07T08:30:28;13.67;;;10.00;;
15297;SDS011;7750;48.796;9.026;2024-01-07T08:35:28;10.47;;;8.47;;
15297;SDS011;7750;48.796;9.026;2024-01-07T08:40:29;15.33;;;10.57;;
15297;SDS011;7750;48.796;9.026;2024-01-07T08:45:31;12.83;;;10.00;;
15297;SDS011;7750;48.796;9.026;2024-01-07T08:50:31;10.87;;;8.50;;
15297;SDS011;7750;48.796;9.026;2024-01-07T08:55:32;9.90;;;7.67;;
15297;SDS011;7750;48.796;9.026;2024-01-07T09:00:33;10.20;;;8.33;;
15297;SDS011;7750;48.796;9.026;2024-01-07T09:05:33;10.13;;;7.23;;
15297;SDS011;7750;48.796;9.026;2024-01-07T09:10:34;11.23;;;7.90;;
15297;SDS011;7750;48.796;9.026;2024-01-07T09:15:35;10.73;;;7.37;;
15297;SDS011;7750;48.796;9.026;2024-01-07T09:20:35;10.03;;;7.53;;
15297;SDS011;7750;48.796;9.026;2024-01-07T09:25:36;9.60;;;7.20;;
15297;SDS011;7750;48.796;9.026;2024-01-07T09:30:36;9.67;;;7.23;;
15297;SDS011;7750;48.796;9.026;2024-01-07T09:35:37;11.73;;;8.83;;
15297;SDS011;7750;48.796;9.026;2024-01-07T09:40:38;12.47;;;9.20;;
15297;SDS011;7750;48.796;9.026;2024-01-07T09:45:41;10.73;;;8.37;;
15297;SDS011;7750;48.796;9.026;2024-01-07T09:50:45;11.27;;;8.53;;
15297;SDS011;7750;48.796;9.026;2024-01-07T09:55:53;9.43;;;8.07;;
15297;SDS011;7750;48.796;9.026;2024-01-07T10:01:14;11.73;;;8.90;;
15297;SDS011;7750;48.796;9.026;2024-01-07T10:06:18;11.83;;;8.40;;
15297;SDS011;7750;48.796;9.026;2024-01-07T10:11:20;13.10;;;9.53;;
15297;SDS011;7750;48.796;9.026;2024-01-07T10:16:23;12.53;;;9.50;;
15297;SDS011;7750;48.796;9.026;2024-01-07T10:21:24;14.02;;;9.80;;
15297;SDS011;7750;48.796;9.026;2024-01-07T10:26:25;12.13;;;9.47;;
15297;SDS011;7750;48.796;9.026;2024-01-07T10:31:26;11.40;;;9.00;;
15297;SDS011;7750;48.796;9.026;2024-01-07T10:36:26;12.27;;;8.60;;
15297;SDS011;7750;48.796;9.026;2024-01-07T10:41:28;12.20;;;6.73;;
15297;SDS011;7750;48.796;9.026;2024-01-07T10:46:30;7.73;;;6.90;;
15297;SDS011;7750;48.796;9.026;2024-01-07T10:51:33;8.00;;;6.73;;
15297;SDS011;7750;48.796;9.026;2024-01-07T10:56:42;8.17;;;6.80;;
15297;SDS011;7750;48.796;9.026;2024-01-07T11:01:48;7.93;;;6.20;;
15297;SDS011;7750;48.796;9.026;2024-01-07T11:06:51;7.23;;;6.20;;
15297;SDS011;7750;48.796;9.026;2024-01-07T11:12:00;8.80;;;7.17;;
15297;SDS011;7750;48.796;9.026;2024-01-07T11:17:02;8.83;;;7.40;;
15297;SDS011;7750;48.796;9.026;2024-01-07T11:22:25;9.07;;;7.67;;
15297;SDS011;7750;48.796;9.026;2024-01-07T11:27:30;9.40;;;8.10;;
15297;SDS011;7750;48.796;9.026;2024-01-07T11:32:34;9.83;;;7.40;;
15297;SDS011;7750;48.796;9.026;2024-01-07T11:37:37;8.77;;;7.57;;
15297;SDS011;7750;48.796;9.026;2024-01-07T11:42:41;7.93;;;6.80;;
15297;SDS011;7750;48.796;9.026;2024-01-07T11:47:47;9.00;;;7.53;;
15297;SDS011;7750;48.796;9.026;2024-01-07T11:52:48;8.60;;;6.77;;
15297;SDS011;7750;48.796;9.026;2024-01-07T11:57:49;8.90;;;7.10;;
15297;SDS011;7750;48.796;9.026;2024-01-07T12:02:52;8.60;;;6.80;;
15297;SDS011;7750;48.796;9.026;2024-01-07T12:07:52;9.00;;;7.50;;
15297;SDS011;7750;48.796;9.026;2024-01-07T12:12:57;9.30;;;8.00;;
15297;SDS011;7750;48.796;9.026;2024-01-07T12:17:58;11.10;;;8.47;;
15297;SDS011;7750;48.796;9.026;2024-01-07T12:23:05;14.33;;;8.63;;
15297;SDS011;7750;48.796;9.026;2024-01-07T12:28:07;11.80;;;8.93;;
15297;SDS011;7750;48.796;9.026;2024-01-07T12:33:07;11.70;;;9.17;;
15297;SDS011;7750;48.796;9.026;2024-01-07T12:38:08;10.63;;;8.33;;
15297;SDS011;7750;48.796;9.026;2024-01-07T12:43:10;12.60;;;10.60;;
15297;SDS011;7750;48.796;9.026;2024-01-07T12:48:14;12.27;;;9.03;;
15297;SDS011;7750;48.796;9.026;2024-01-07T12:53:15;12.47;;;10.20;;
15297;SDS011;7750;48.796;9.026;2024-01-07T12:58:16;10.63;;;8.80;;
15297;SDS011;7750;48.796;9.026;2024-01-07T13:03:18;13.30;;;10.00;;
15297;SDS011;7750;48.796;9.026;2024-01-07T13:08:20;13.80;;;10.70;;
15297;SDS011;7750;48.796;9.026;2024-01-07T13:13:40;13.00;;;10.50;;
15297;SDS011;7750;48.796;9.026;2024-01-07T13:19:07;13.70;;;11.50;;
15297;SDS011;7750;48.796;9.026;2024-01-07T13:24:10;11.37;;;9.63;;
15297;SDS011;7750;48.796;9.026;2024-01-07T13:29:11;12.27;;;9.90;;
15297;SDS011;7750;48.796;9.026;2024-01-07T13:34:11;14.27;;;11.70;;
15297;SDS011;7750;48.796;9.026;2024-01-07T13:39:16;12.80;;;10.10;;
15297;SDS011;7750;48.796;9.026;2024-01-07T13:44:17;13.97;;;10.90;;
15297;SDS011;7750;48.796;9.026;2024-01-07T13:49:18;14.50;;;11.50;;
15297;SDS011;7750;48.796;9.026;2024-01-07T13:54:22;13.70;;;11.27;;
15297;SDS011;7750;48.796;9.026;2024-01-07T13:59:22;16.07;;;11.27;;
15297;SDS011;7750;48.796;9.026;2024-01-07T14:04:23;15.93;;;12.40;;
15297;SDS011;7750;48.796;9.026;2024-01-07T14:09:44;16.27;;;12.70;;
15297;SDS011;7750;48.796;9.026;2024-01-07T14:14:46;13.53;;;10.93;;
15297;SDS011;7750;48.796;9.026;2024-01-07T14:19:48;16.20;;;12.23;;
15297;SDS011;7750;48.796;9.026;2024-01-07T14:24:51;16.13;;;11.83;;
15297;SDS011;7750;48.796;9.026;2024-01-07T14:29:56;18.27;;;13.73;;
15297;SDS011;7750;48.796;9.026;2024-01-07T14:34:57;15.13;;;11.87;;
15297;SDS011;7750;48.796;9.026;2024-01-07T14:39:59;15.33;;;12.60;;
15297;SDS011;7750;48.796;9.026;2024-01-07T14:44:59;15.23;;;11.20;;
15297;SDS011;7750;48.796;9.026;2024-01-07T14:50:00;16.40;;;12.53;;
15297;SDS011;7750;48.796;9.026;2024-01-07T14:55:02;15.60;;;11.77;;
15297;SDS011;7750;48.796;9.026;2024-01-07T15:00:03;15.90;;;11.57;;
15297;SDS011;7750;48.796;9.026;2024-01-07T15:05:08;16.83;;;12.90;;
15297;SDS011;7750;48.796;9.026;2024-01-07T15:10:09;14.43;;;11.20;;
15297;SDS011;7750;48.796;9.026;2024-01-07T15:15:10;16.53;;;12.07;;
15297;SDS011;7750;48.796;9.026;2024-01-07T15:20:11;15.80;;;11.87;;
15297;SDS011;7750;48.796;9.026;2024-01-07T15:25:12;14.40;;;11.50;;
15297;SDS011;7750;48.796;9.026;2024-01-07T15:30:12;15.00;;;11.40;;
15297;SDS011;7750;48.796;9.026;2024-01-07T15:35:13;16.90;;;12.90;;
15297;SDS011;7750;48.796;9.026;2024-01-07T15:40:14;15.10;;;11.20;;
15297;SDS011;7750;48.796;9.026;2024-01-07T15:45:14;15.00;;;11.87;;
15297;SDS011;7750;48.796;9.026;2024-01-07T15:50:15;15.40;;;10.60;;
15297;SDS011;7750;48.796;9.026;2024-01-07T15:55:16;16.40;;;11.73;;
15297;SDS011;7750;48.796;9.026;2024-01-07T16:00:19;17.10;;;11.23;;
15297;SDS011;7750;48.796;9.026;2024-01-07T16:05:20;16.13;;;12.10;;
15297;SDS011;7750;48.796;9.026;2024-01-07T16:10:20;13.67;;;11.03;;
15297;SDS011;7750;48.796;9.026;2024-01-07T16:15:21;15.77;;;11.37;;
15297;SDS011;7750;48.796;9.026;2024-01-07T16:20:21;15.30;;;10.23;;
15297;SDS011;7750;48.796;9.026;2024-01-07T16:25:22;15.30;;;10.60;;
15297;SDS011;7750;48.796;9.026;2024-01-07T16:30:23;15.17;;;10.57;;
15297;SDS011;7750;48.796;9.026;2024-01-07T16:35:24;15.70;;;10.67;;
15297;SDS011;7750;48.796;9.026;2024-01-07T16:40:26;13.70;;;10.10;;
15297;SDS011;7750;48.796;9.026;2024-01-07T16:45:29;14.80;;;10.00;;
15297;SDS011;7750;48.796;9.026;2024-01-07T16:50:30;15.07;;;10.87;;
15297;SDS011;7750;48.796;9.026;2024-01-07T16:55:31;14.27;;;11.03;;
15297;SDS011;7750;48.796;9.026;2024-01-07T17:00:31;12.73;;;8.80;;
15297;SDS011;7750;48.796;9.026;2024-01-07T17:05:33;15.10;;;10.30;;
15297;SDS011;7750;48.796;9.026;2024-01-07T17:10:33;12.63;;;9.07;;
15297;SDS011;7750;48.796;9.026;2024-01-07T17:15:39;13.47;;;9.70;;
15297;SDS011;7750;48.796;9.026;2024-01-07T17:20:41;13.13;;;9.67;;
15297;SDS011;7750;48.796;9.026;2024-01-07T17:25:42;14.27;;;9.83;;
15297;SDS011;7750;48.796;9.026;2024-01-07T17:30:43;14.47;;;10.67;;
15297;SDS011;7750;48.796;9.026;2024-01-07T17:35:44;13.37;;;10.20;;
15297;SDS011;7750;48.796;9.026;2024-01-07T17:40:48;11.93;;;9.27;;
15297;SDS011;7750;48.796;9.026;2024-01-07T17:45:48;15.40;;;11.67;;
15297;SDS011;7750;48.796;9.026;2024-01-07T17:50:50;20.13;;;11.97;;
15297;SDS011;7750;48.796;9.026;2024-01-07T17:55:51;15.17;;;10.33;;
15297;SDS011;7750;48.796;9.026;2024-01-07T18:00:52;15.80;;;10.67;;
15297;SDS011;7750;48.796;9.026;2024-01-07T18:05:53;15.77;;;10.20;;
15297;SDS011;7750;48.796;9.026;2024-01-07T18:10:59;14.17;;;10.80;;
15297;SDS011;7750;48.796;9.026;2024-01-07T18:16:49;17.83;;;10.50;;
15297;SDS011;7750;48.796;9.026;2024-01-07T18:21:50;20.50;;;12.33;;
15297;SDS011;7750;48.796;9.026;2024-01-07T18:26:51;15.90;;;11.07;;
15297;SDS011;7750;48.796;9.026;2024-01-07T18:31:55;17.03;;;10.73;;
15297;SDS011;7750;48.796;9.026;2024-01-07T18:36:56;16.87;;;11.53;;
15297;SDS011;7750;48.796;9.026;2024-01-07T18:41:57;15.53;;;11.37;;
15297;SDS011;7750;48.796;9.026;2024-01-07T18:46:58;16.50;;;10.00;;
15297;SDS011;7750;48.796;9.026;2024-01-07T18:51:59;16.40;;;11.47;;
15297;SDS011;7750;48.796;9.026;2024-01-07T18:57:00;13.40;;;10.20;;
15297;SDS011;7750;48.796;9.026;2024-01-07T19:02:03;14.90;;;10.43;;
15297;SDS011;7750;48.796;9.026;2024-01-07T19:07:03;11.87;;;8.97;;
15297;SDS011;7750;48.796;9.026;2024-01-07T19:12:05;16.13;;;10.53;;
15297;SDS011;7750;48.796;9.026;2024-01-07T19:17:08;12.80;;;8.53;;
15297;SDS011;7750;48.796;9.026;2024-01-07T19:22:47;10.27;;;7.40;;
15297;SDS011;7750;48.796;9.026;2024-01-07T19:27:47;13.37;;;9.07;;
15297;SDS011;7750;48.796;9.026;2024-01-07T19:32:51;12.07;;;9.00;;
15297;SDS011;7750;48.796;9.026;2024-01-07T19:37:53;14.47;;;10.10;;
15297;SDS011;7750;48.796;9.026;2024-01-07T19:42:57;9.73;;;8.00;;
15297;SDS011;7750;48.796;9.026;2024-01-07T19:47:58;11.20;;;9.10;;
15297;SDS011;7750;48.796;9.026;2024-01-07T19:53:01;16.20;;;9.67;;
15297;SDS011;7750;48.796;9.026;2024-01-07T19:58:02;15.83;;;10.83;;
15297;SDS011;7750;48.796;9.026;2024-01-07T20:03:05;12.53;;;9.50;;
15297;SDS011;7750;48.796;9.026;2024-01-07T20:13:18;10.93;;;9.00;;
15297;SDS011;7750;48.796;9.026;2024-01-07T20:18:19;12.43;;;7.93;;
15297;SDS011;7750;48.796;9.026;2024-01-07T20:23:23;9.50;;;8.07;;
15297;SDS011;7750;48.796;9.026;2024-01-07T20:28:24;10.83;;;8.53;;
15297;SDS011;7750;48.796;9.026;2024-01-07T20:33:24;11.60;;;9.07;;
15297;SDS011;7750;48.796;9.026;2024-01-07T20:38:26;10.50;;;7.93;;
15297;SDS011;7750;48.796;9.026;2024-01-07T20:43:30;7.33;;;6.30;;
15297;SDS011;7750;48.796;9.026;2024-01-07T20:48:31;8.63;;;6.97;;
15297;SDS011;7750;48.796;9.026;2024-01-07T20:53:33;10.73;;;8.13;;
15297;SDS011;7750;48.796;9.026;2024-01-07T20:58:35;18.83;;;13.20;;
15297;SDS011;7750;48.796;9.026;2024-01-07T21:03:36;10.40;;;7.87;;
15297;SDS011;7750;48.796;9.026;2024-01-07T21:08:38;9.10;;;7.40;;
15297;SDS011;7750;48.796;9.026;2024-01-07T21:14:16;9.33;;;7.73;;
15297;SDS011;7750;48.796;9.026;2024-01-07T21:19:20;8.10;;;6.47;;
15297;SDS011;7750;48.796;9.026;2024-01-07T21:24:53;8.57;;;6.83;;
15297;SDS011;7750;48.796;9.026;2024-01-07T21:30:38;8.60;;;6.93;;
15297;SDS011;7750;48.796;9.026;2024-01-07T21:35:38;10.37;;;7.83;;
15297;SDS011;7750;48.796;9.026;2024-01-07T21:40:39;9.20;;;6.70;;
15297;SDS011;7750;48.796;9.026;2024-01-07T21:45:41;10.90;;;7.47;;
15297;SDS011;7750;48.796;9.026;2024-01-07T21:50:41;8.30;;;7.50;;
15297;SDS011;7750;48.796;9.026;2024-01-07T21:55:42;8.70;;;7.37;;
15297;SDS011;7750;48.796;9.026;2024-01-07T22:00:43;14.30;;;7.50;;
15297;SDS011;7750;48.796;9.026;2024-01-07T22:05:43;8.23;;;6.80;;
15297;SDS011;7750;48.796;9.026;2024-01-07T22:10:44;9.60;;;7.37;;
15297;SDS011;7750;48.796;9.026;2024-01-07T22:15:50;7.23;;;6.50;;
15297;SDS011;7750;48.796;9.026;2024-01-07T22:21:17;6.80;;;6.00;;
15297;SDS011;7750;48.796;9.026;2024-01-07T22:26:22;8.50;;;6.70;;
15297;SDS011;7750;48.796;9.026;2024-01-07T22:36:35;8.90;;;7.53;;
15297;SDS011;7750;48.796;9.026;2024-01-07T22:41:53;8.43;;;7.07;;
15297;SDS011;7750;48.796;9.026;2024-01-07T22:47:20;8.80;;;6.30;;
15297;SDS011;7750;48.796;9.026;2024-01-07T22:52:21;9.20;;;7.70;;
15297;SDS011;7750;48.796;9.026;2024-01-07T22:57:22;7.00;;;6.20;;
15297;SDS011;7750;48.796;9.026;2024-01-07T23:02:23;7.97;;;6.90;;
15297;SDS011;7750;48.796;9.026;2024-01-07T23:13:34;7.80;;;5.97;;
15297;SDS011;7750;48.796;9.026;2024-01-07T23:30:24;5.80;;;4.53;;
15297;SDS011;7750;48.796;9.026;2024-01-07T23:35:30;5.17;;;4.20;;
15297;SDS011;7750;48.796;9.026;2024-01-07T23:40:31;4.80;;;4.07;;
15297;SDS011;7750;48.796;9.026;2024-01-07T23:45:34;5.10;;;4.27;;
15297;SDS011;7750;48.796;9.026;2024-01-07T23:50:36;4.70;;;4.10;;
15297;SDS011;7750;48.796;9.026;2024-01-07T23:55:40;5.43;;;4.33;;
